createdAt,value
2023-04-22T03:58:25.635Z,4.40
2023-04-22T03:59:25.764Z,4.80
2023-04-22T04:00:25.966Z,5.60
2023-04-22T04:01:26.097Z,5.10
2023-04-22T04:02:26.340Z,5.10
2023-04-22T04:03:27.999Z,6.30
2023-04-22T04:04:26.734Z,6.50
2023-04-22T04:05:26.642Z,4.60
2023-04-22T04:06:26.614Z,6.20
2023-04-22T04:07:26.715Z,5.70
2023-04-22T04:08:26.902Z,5.40
2023-04-22T04:09:27.045Z,5.10
2023-04-22T04:10:27.181Z,4.70
2023-04-22T04:11:27.250Z,5.80
2023-04-22T04:12:27.402Z,5.40
2023-04-22T04:13:27.493Z,4.40
2023-04-22T04:14:27.605Z,5.80
2023-04-22T04:15:27.689Z,5.40
2023-04-22T04:16:27.917Z,4.50
2023-04-22T04:17:27.975Z,5.10
2023-04-22T04:18:28.059Z,5.10
2023-04-22T04:19:28.171Z,4.30
2023-04-22T04:20:28.292Z,4.50
2023-04-22T04:21:28.447Z,5.30
2023-04-22T04:22:29.549Z,4.20
2023-04-22T04:23:28.698Z,4.90
2023-04-22T04:24:29.830Z,5.90
2023-04-22T04:25:28.960Z,5.50
2023-04-22T04:26:29.118Z,6.10
2023-04-22T04:27:29.293Z,5.30
2023-04-22T04:28:29.392Z,4.40
2023-04-22T04:29:29.473Z,4.50
2023-04-22T04:30:31.109Z,4.50
2023-04-22T04:31:29.829Z,4.80
2023-04-22T04:32:30.910Z,5.90
2023-04-22T04:33:30.109Z,4.80
2023-04-22T04:34:30.969Z,4.80
2023-04-22T04:35:30.312Z,5.50
2023-04-22T04:36:30.441Z,4.90
2023-04-22T04:37:30.577Z,5.20
2023-04-22T04:38:30.743Z,5.20
2023-04-22T04:39:30.969Z,5.80
2023-04-22T04:40:30.987Z,5.10
2023-04-22T04:41:31.139Z,5.20
2023-04-22T04:42:31.295Z,4.60
2023-04-22T04:43:31.445Z,5.00
2023-04-22T04:44:31.625Z,5.40
2023-04-22T04:45:31.709Z,4.60
2023-04-22T04:46:31.922Z,4.80
2023-04-22T04:47:32.014Z,4.70
2023-04-22T04:48:32.088Z,5.20
2023-04-22T04:49:32.195Z,5.80
2023-04-22T04:50:32.363Z,5.60
2023-04-22T04:51:32.577Z,4.40
2023-04-22T04:52:32.629Z,4.50
2023-04-22T04:53:32.897Z,5.20
2023-04-22T04:54:32.934Z,4.10
2023-04-22T04:55:33.041Z,4.70
2023-04-22T04:56:33.134Z,5.30
2023-04-22T04:57:33.260Z,5.00
2023-04-22T04:58:33.421Z,5.80
2023-04-22T04:59:33.539Z,4.80
2023-04-22T05:00:33.737Z,5.80
2023-04-22T05:01:33.795Z,4.90
2023-04-22T05:02:34.063Z,5.40
2023-04-22T05:03:34.171Z,5.00
2023-04-22T05:04:34.597Z,4.50
2023-04-22T05:05:34.365Z,4.20
2023-04-22T05:06:34.540Z,4.60
2023-04-22T05:07:34.680Z,4.90
2023-04-22T05:08:34.859Z,5.00
2023-04-22T05:09:34.994Z,4.20
2023-04-22T05:10:35.115Z,4.70
2023-04-22T05:11:35.257Z,5.10
2023-04-22T05:12:35.440Z,4.50
2023-04-22T05:13:35.527Z,5.30
2023-04-22T05:14:35.710Z,3.90
2023-04-22T05:15:35.802Z,3.90
2023-04-22T05:16:36.014Z,4.20
2023-04-22T05:17:36.180Z,5.90
2023-04-22T05:18:36.254Z,5.00
2023-04-22T05:19:36.411Z,4.60
2023-04-22T05:20:36.543Z,5.40
2023-04-22T05:21:36.764Z,3.90
2023-04-22T05:22:36.884Z,4.90
2023-04-22T05:23:36.978Z,4.70
2023-04-22T05:24:37.140Z,4.50
2023-04-22T05:25:37.290Z,4.70
2023-04-22T05:26:37.459Z,4.90
2023-04-22T05:27:37.611Z,4.80
2023-04-22T05:28:37.757Z,4.10
2023-04-22T05:29:38.228Z,5.60
2023-04-22T05:30:37.996Z,4.70
2023-04-22T05:31:38.171Z,4.60
2023-04-22T05:32:38.385Z,4.00
2023-04-22T05:34:54.006Z,4.10
2023-04-22T05:35:54.174Z,5.40
2023-04-22T05:37:15.352Z,4.00
2023-04-22T05:37:55.437Z,4.60
2023-04-22T05:38:54.629Z,3.70
2023-04-22T05:39:54.752Z,4.10
2023-04-22T05:40:54.898Z,6.10
2023-04-22T05:41:55.975Z,5.00
2023-04-22T05:42:56.071Z,3.70
2023-04-22T05:43:55.233Z,4.10
2023-04-22T05:44:55.392Z,3.70
2023-04-22T05:45:55.630Z,3.30
2023-04-22T05:46:55.652Z,5.50
2023-04-22T05:47:56.884Z,4.40
2023-04-22T05:48:55.952Z,4.20
2023-04-22T05:49:56.084Z,4.20
2023-04-22T05:50:56.205Z,4.60
2023-04-22T05:51:56.352Z,4.30
2023-04-22T05:52:56.521Z,3.50
2023-04-22T05:53:56.668Z,4.80
2023-04-22T05:54:56.838Z,4.60
2023-04-22T05:55:56.987Z,4.60
2023-04-22T05:56:57.113Z,4.30
2023-04-22T05:57:58.199Z,4.20
2023-04-22T05:58:57.337Z,5.00
2023-04-22T05:59:57.494Z,4.40
2023-04-22T06:00:57.625Z,4.00
2023-04-22T06:01:57.772Z,4.60
2023-04-22T06:02:58.053Z,4.20
2023-04-22T06:03:58.248Z,4.90
2023-04-22T06:04:59.225Z,4.10
2023-04-22T06:05:58.352Z,5.00
2023-04-22T06:06:58.475Z,5.00
2023-04-22T06:07:58.627Z,5.00
2023-04-22T06:08:58.769Z,4.40
2023-04-22T06:10:04.439Z,4.40
2023-04-22T06:11:00.119Z,4.00
2023-04-22T06:11:59.247Z,3.60
2023-04-22T06:12:59.321Z,4.70
2023-04-22T06:13:59.473Z,4.40
2023-04-22T06:14:59.628Z,3.90
2023-04-22T06:15:59.831Z,3.60
2023-04-22T06:16:59.946Z,5.30
2023-04-22T06:18:01.032Z,4.30
2023-04-22T06:19:00.201Z,4.90
2023-04-22T06:20:00.349Z,3.60
2023-04-22T06:21:00.519Z,4.60
2023-04-22T06:22:00.634Z,4.00
2023-04-22T06:23:00.821Z,3.60
2023-04-22T06:24:00.938Z,3.90
2023-04-22T06:25:01.200Z,4.40
2023-04-22T06:26:01.297Z,4.50
2023-04-22T06:27:01.360Z,3.90
2023-04-22T06:28:01.499Z,3.70
2023-04-22T06:29:01.657Z,3.60
2023-04-22T06:30:01.795Z,4.90
2023-04-22T06:31:02.038Z,3.40
2023-04-22T06:32:02.044Z,3.60
2023-04-22T06:33:02.201Z,3.90
2023-04-22T06:34:02.359Z,3.20
2023-04-22T06:35:03.182Z,3.30
2023-04-22T06:36:02.560Z,3.20
2023-04-22T06:37:02.703Z,5.00
2023-04-22T06:38:02.857Z,4.30
2023-04-22T06:39:02.980Z,4.10
2023-04-22T06:40:03.128Z,4.60
2023-04-22T06:41:03.292Z,4.30
2023-04-22T06:42:03.561Z,4.20
2023-04-22T06:43:03.554Z,3.70
2023-04-22T06:44:03.702Z,3.40
2023-04-22T06:45:03.784Z,4.00
2023-04-22T06:46:03.954Z,3.00
2023-04-22T06:47:04.156Z,3.90
2023-04-22T06:48:04.262Z,3.60
2023-04-22T06:49:04.526Z,4.60
2023-04-22T06:50:04.652Z,4.10
2023-04-22T06:51:04.783Z,4.60
2023-04-22T06:52:04.882Z,4.50
2023-04-22T06:53:04.980Z,4.10
2023-04-22T06:54:05.117Z,4.00
2023-04-22T06:55:05.236Z,3.60
2023-04-22T06:56:05.424Z,3.30
2023-04-22T06:57:05.526Z,3.70
2023-04-22T06:58:05.698Z,3.80
2023-04-22T06:59:05.818Z,4.00
2023-04-22T07:00:05.944Z,3.00
2023-04-22T07:01:06.101Z,3.60
2023-04-22T07:02:06.329Z,3.50
2023-04-22T07:03:06.369Z,3.90
2023-04-22T07:04:06.467Z,3.70
2023-04-22T07:05:06.556Z,4.80
2023-04-22T07:06:06.713Z,4.10
2023-04-22T07:07:07.746Z,3.90
2023-04-22T07:08:06.892Z,3.90
2023-04-22T07:09:07.040Z,3.40
2023-04-22T07:10:07.233Z,3.80
2023-04-22T07:11:07.301Z,3.90
2023-04-22T07:12:07.420Z,3.70
2023-04-22T07:13:08.503Z,3.90
2023-04-22T07:15:23.299Z,3.40
2023-04-22T07:16:23.418Z,3.20
2023-04-22T07:17:23.619Z,5.20
2023-04-22T07:18:23.630Z,3.40
2023-04-22T07:19:23.767Z,4.30
2023-04-22T07:20:23.914Z,3.60
2023-04-22T07:21:24.981Z,3.50
2023-04-22T07:22:24.190Z,3.90
2023-04-22T07:23:24.332Z,5.00
2023-04-22T07:24:24.419Z,3.30
2023-04-22T07:25:24.546Z,3.70
2023-04-22T07:26:24.671Z,5.00
2023-04-22T07:27:24.781Z,4.20
2023-04-22T07:28:25.103Z,4.60
2023-04-22T07:29:25.069Z,4.00
2023-04-22T07:30:25.207Z,3.00
2023-04-22T07:31:25.364Z,2.80
2023-04-22T07:32:25.494Z,4.00
2023-04-22T07:33:25.627Z,3.80
2023-04-22T07:34:25.763Z,3.30
2023-04-22T07:35:26.823Z,3.30
2023-04-22T07:36:26.032Z,3.50
2023-04-22T07:37:26.205Z,3.40
2023-04-22T07:38:26.341Z,3.40
2023-04-22T07:39:26.402Z,3.70
2023-04-22T07:40:26.553Z,2.70
2023-04-22T07:41:26.716Z,3.10
2023-04-22T07:42:26.894Z,4.20
2023-04-22T07:43:27.971Z,3.90
2023-04-22T07:44:27.242Z,3.10
2023-04-22T07:45:27.283Z,2.80
2023-04-22T07:46:27.410Z,3.60
2023-04-22T07:47:27.575Z,3.60
2023-04-22T07:48:27.736Z,3.00
2023-04-22T07:49:27.883Z,3.30
2023-04-22T07:50:28.106Z,3.40
2023-04-22T07:51:28.203Z,3.70
2023-04-22T07:52:28.338Z,3.40
2023-04-22T07:53:28.497Z,3.00
2023-04-22T07:54:28.554Z,3.30
2023-04-22T07:55:28.707Z,3.60
2023-04-22T07:56:28.856Z,3.40
2023-04-22T07:57:29.001Z,3.60
2023-04-22T07:58:29.114Z,4.10
2023-04-22T07:59:29.253Z,2.80
2023-04-22T08:00:29.404Z,3.20
2023-04-22T08:01:29.553Z,3.20
2023-04-22T08:02:29.777Z,2.60
2023-04-22T08:04:30.227Z,3.10
2023-04-22T08:05:30.274Z,2.70
2023-04-22T08:06:30.340Z,3.10
2023-04-22T08:07:33.114Z,2.40
2023-04-22T08:08:30.529Z,3.20
2023-04-22T08:09:30.679Z,3.00
2023-04-22T08:10:30.853Z,3.30
2023-04-22T08:11:31.001Z,3.00
2023-04-22T08:12:31.213Z,2.90
2023-04-22T08:13:31.268Z,3.00
2023-04-22T08:14:31.350Z,3.50
2023-04-22T08:15:31.509Z,3.40
2023-04-22T08:16:31.648Z,3.00
2023-04-22T08:17:31.794Z,3.90
2023-04-22T08:18:31.996Z,3.30
2023-04-22T08:19:32.088Z,3.40
2023-04-22T08:20:32.260Z,3.10
2023-04-22T08:21:32.343Z,2.70
2023-04-22T08:22:32.526Z,3.40
2023-04-22T08:23:32.683Z,3.60
2023-04-22T08:24:32.877Z,4.00
2023-04-22T08:25:32.939Z,3.60
2023-04-22T08:26:33.109Z,3.10
2023-04-22T08:27:33.946Z,3.60
2023-04-22T08:28:33.333Z,3.10
2023-04-22T08:29:33.505Z,3.30
2023-04-22T08:30:33.658Z,3.10
2023-04-22T08:31:33.738Z,2.80
2023-04-22T08:32:33.928Z,2.80
2023-04-22T08:33:34.048Z,3.40
2023-04-22T08:34:34.200Z,2.80
2023-04-22T08:35:34.484Z,3.10
2023-04-22T08:36:34.545Z,3.20
2023-04-22T08:37:34.651Z,2.90
2023-04-22T08:38:34.783Z,3.70
2023-04-22T08:39:34.930Z,2.40
2023-04-22T08:40:35.199Z,2.90
2023-04-22T08:41:35.169Z,2.90
2023-04-22T08:42:35.338Z,2.90
2023-04-22T08:43:35.470Z,2.60
2023-04-22T08:44:35.631Z,3.70
2023-04-22T08:45:35.738Z,3.50
2023-04-22T08:46:35.952Z,3.60
2023-04-22T08:47:36.068Z,3.20
2023-04-22T08:48:36.153Z,3.00
2023-04-22T08:49:36.286Z,2.90
2023-04-22T08:50:36.451Z,3.10
2023-04-22T08:51:36.541Z,3.70
2023-04-22T08:52:36.724Z,3.50
2023-04-22T08:53:36.871Z,2.90
2023-04-22T08:54:36.963Z,2.30
2023-04-22T08:55:37.100Z,2.80
2023-04-22T08:56:37.280Z,5.00
2023-04-22T08:57:37.368Z,3.50
2023-04-22T08:58:37.554Z,2.60
2023-04-22T08:59:37.988Z,2.50
2023-04-22T09:00:37.804Z,3.50
2023-04-22T09:01:37.966Z,3.30
2023-04-22T09:02:38.120Z,2.60
2023-04-22T09:03:38.309Z,3.20
2023-04-22T09:04:38.507Z,2.60
2023-04-22T09:05:38.600Z,2.90
2023-04-22T09:06:39.134Z,2.60
2023-04-22T09:07:38.876Z,3.00
2023-04-22T09:09:54.571Z,2.40
2023-04-22T09:10:54.767Z,2.70
2023-04-22T09:11:54.800Z,2.50
2023-04-22T09:12:54.954Z,3.70
2023-04-22T09:13:55.088Z,2.90
2023-04-22T09:14:55.202Z,2.60
2023-04-22T09:15:55.958Z,2.80
2023-04-22T09:16:55.460Z,3.70
2023-04-22T09:17:55.684Z,2.60
2023-04-22T09:18:55.794Z,2.50
2023-04-22T09:19:55.844Z,2.40
2023-04-22T09:20:56.009Z,3.00
2023-04-22T09:21:56.097Z,2.60
2023-04-22T09:22:56.264Z,3.00
2023-04-22T09:23:56.393Z,3.00
2023-04-22T09:24:56.475Z,3.10
2023-04-22T09:25:56.609Z,2.70
2023-04-22T09:26:56.780Z,1.80
2023-04-22T09:27:56.900Z,3.90
2023-04-22T09:28:57.068Z,2.50
2023-04-22T09:29:57.162Z,2.90
2023-04-22T09:30:57.318Z,3.20
2023-04-22T09:31:57.476Z,1.90
2023-04-22T09:32:57.648Z,3.40
2023-04-22T09:33:57.685Z,2.80
2023-04-22T09:34:57.819Z,2.10
2023-04-22T09:35:57.993Z,3.60
2023-04-22T09:36:58.085Z,2.40
2023-04-22T09:37:58.255Z,2.90
2023-04-22T09:38:58.393Z,2.30
2023-04-22T09:39:58.533Z,2.70
2023-04-22T09:40:58.735Z,2.60
2023-04-22T09:41:58.927Z,2.20
2023-04-22T09:42:59.040Z,2.60
2023-04-22T09:43:59.116Z,2.50
2023-04-22T09:45:01.236Z,2.10
2023-04-22T09:45:59.405Z,2.40
2023-04-22T09:46:59.505Z,2.10
2023-04-22T09:47:59.828Z,2.50
2023-04-22T09:48:59.821Z,4.20
2023-04-22T09:49:59.947Z,2.70
2023-04-22T09:51:00.060Z,3.20
2023-04-22T09:52:00.532Z,2.60
2023-04-22T09:53:00.376Z,3.50
2023-04-22T09:54:00.529Z,2.60
2023-04-22T09:55:00.668Z,3.20
2023-04-22T09:56:00.778Z,3.50
2023-04-22T09:57:00.948Z,2.30
2023-04-22T09:58:01.020Z,3.00
2023-04-22T09:59:01.193Z,2.10
2023-04-22T10:00:01.328Z,2.60
2023-04-22T10:01:01.500Z,2.00
2023-04-22T10:12:41.209Z,4.00
2023-04-22T10:13:41.326Z,2.20
2023-04-22T10:14:41.493Z,2.70
2023-04-22T10:15:41.599Z,3.00
2023-04-22T10:16:41.772Z,2.00
2023-04-22T10:17:41.954Z,3.30
2023-04-22T10:18:42.007Z,2.70
2023-04-22T10:19:42.391Z,2.60
2023-04-22T10:20:42.284Z,2.90
2023-04-22T10:21:42.461Z,2.20
2023-04-22T10:22:42.530Z,2.80
2023-04-22T10:23:42.743Z,3.10
2023-04-22T10:24:42.873Z,2.90
2023-04-22T10:25:43.007Z,2.00
2023-04-22T10:26:43.142Z,2.00
2023-04-22T10:27:43.195Z,2.70
2023-04-22T10:28:43.383Z,3.10
2023-04-22T10:29:43.853Z,2.20
2023-04-22T10:30:43.681Z,3.00
2023-04-22T10:31:43.819Z,2.40
2023-04-22T10:32:43.971Z,2.30
2023-04-22T10:33:44.088Z,2.70
2023-04-22T10:34:44.284Z,2.10
2023-04-22T10:35:44.410Z,2.30
2023-04-22T10:36:44.584Z,2.70
2023-04-22T10:37:44.702Z,2.70
2023-04-22T10:38:44.883Z,2.80
2023-04-22T10:39:44.979Z,1.90
2023-04-22T10:40:45.096Z,2.20
2023-04-22T10:41:45.218Z,2.60
2023-04-22T10:42:46.047Z,2.10
2023-04-22T10:43:45.575Z,1.80
2023-04-22T10:44:46.362Z,1.90
2023-04-22T10:45:45.841Z,2.20
2023-04-22T10:46:46.001Z,2.50
2023-04-22T10:47:46.118Z,2.20
2023-04-22T10:48:46.302Z,2.40
2023-04-22T10:49:46.401Z,2.30
2023-04-22T10:50:46.575Z,2.40
2023-04-22T10:51:46.688Z,2.70
2023-04-22T10:52:46.873Z,2.00
2023-04-22T10:53:47.004Z,2.30
2023-04-22T10:54:47.082Z,2.80
2023-04-22T10:55:47.209Z,2.70
2023-04-22T10:56:51.864Z,3.10
2023-04-22T10:57:48.627Z,2.50
2023-04-22T10:58:47.686Z,2.20
2023-04-22T10:59:50.068Z,2.40
2023-04-22T11:01:48.166Z,1.80
2023-04-22T11:02:48.470Z,2.00
2023-04-22T11:03:48.480Z,1.60
2023-04-22T11:04:48.671Z,1.90
2023-04-22T11:05:48.674Z,1.70
2023-04-22T11:06:48.842Z,2.10
2023-04-22T11:07:49.010Z,2.60
2023-04-22T11:08:49.164Z,2.20
2023-04-22T11:09:49.229Z,2.10
2023-04-22T11:10:49.373Z,2.70
2023-04-22T11:11:49.513Z,1.90
2023-04-22T11:12:49.697Z,2.40
2023-04-22T11:13:49.800Z,2.80
2023-04-22T11:14:50.584Z,2.70
2023-04-22T11:15:50.158Z,1.80
2023-04-22T11:16:50.313Z,1.80
2023-04-22T11:17:50.451Z,1.70
2023-04-22T11:18:50.582Z,2.80
2023-04-22T11:19:50.724Z,2.10
2023-04-22T11:20:50.911Z,1.80
2023-04-22T11:21:51.316Z,1.70
2023-04-22T11:22:51.095Z,2.60
2023-04-22T11:23:51.238Z,1.60
2023-04-22T11:24:51.349Z,2.80
2023-04-22T11:25:51.491Z,2.70
2023-04-22T11:26:51.567Z,2.30
2023-04-22T11:27:51.684Z,2.10
2023-04-22T11:28:51.959Z,2.70
2023-04-22T11:29:51.912Z,1.40
2023-04-22T11:30:53.026Z,2.20
2023-04-22T11:31:52.203Z,1.60
2023-04-22T11:32:52.353Z,2.50
2023-04-22T11:33:52.452Z,3.20
2023-04-22T11:34:52.675Z,2.20
2023-04-22T11:35:52.810Z,2.70
2023-04-22T11:36:52.891Z,3.10
2023-04-22T11:37:53.058Z,2.50
2023-04-22T11:38:53.145Z,1.80
2023-04-22T11:40:13.517Z,1.80
2023-04-22T11:40:54.386Z,1.80
2023-04-22T11:41:53.517Z,2.00
2023-04-22T11:42:53.681Z,1.70
2023-04-22T11:43:53.836Z,1.80
2023-04-22T11:44:54.624Z,2.30
2023-04-22T11:45:54.204Z,1.90
2023-04-22T11:46:54.333Z,2.30
2023-04-22T11:47:54.442Z,1.60
2023-04-22T11:48:54.515Z,2.20
2023-04-22T11:49:54.625Z,1.90
2023-04-22T11:50:54.832Z,2.50
2023-04-22T11:51:54.966Z,3.30
2023-04-22T11:52:55.154Z,2.00
2023-04-22T11:53:55.405Z,1.80
2023-04-22T11:56:11.592Z,1.70
2023-04-22T11:57:11.571Z,1.90
2023-04-22T11:58:11.598Z,2.10
2023-04-22T11:59:11.579Z,2.20
2023-04-22T12:00:11.615Z,1.80
2023-04-22T12:01:11.596Z,2.40
2023-04-22T12:02:11.780Z,2.30
2023-04-22T12:03:14.272Z,2.60
2023-04-22T12:04:11.781Z,2.30
2023-04-22T12:05:11.663Z,1.60
2023-04-22T12:06:11.641Z,1.90
2023-04-22T12:07:11.658Z,2.40
2023-04-22T12:08:11.618Z,2.10
2023-04-22T12:09:12.702Z,1.80
2023-04-22T12:10:11.683Z,2.40
2023-04-22T12:11:11.640Z,1.70
2023-04-22T12:12:11.686Z,1.50
2023-04-22T12:13:11.667Z,1.70
2023-04-22T12:14:11.699Z,1.70
2023-04-22T12:15:13.802Z,2.60
2023-04-22T12:16:11.689Z,2.50
2023-04-22T12:17:12.755Z,1.60
2023-04-22T12:18:11.683Z,2.10
2023-04-22T12:19:11.690Z,1.60
2023-04-22T12:20:11.724Z,1.80
2023-04-22T12:21:11.706Z,1.70
2023-04-22T12:22:11.712Z,1.40
2023-04-22T12:23:11.750Z,1.60
2023-04-22T12:24:11.729Z,2.00
2023-04-22T12:25:11.723Z,2.00
2023-04-22T12:26:11.754Z,1.50
2023-04-22T12:27:11.731Z,1.80
2023-04-22T12:28:11.739Z,1.90
2023-04-22T12:29:11.789Z,2.00
2023-04-22T12:30:11.790Z,2.20
2023-04-22T12:31:11.842Z,1.50
2023-04-22T12:32:11.819Z,1.70
2023-04-22T12:33:11.789Z,1.40
2023-04-22T12:34:11.801Z,2.00
2023-04-22T12:35:11.795Z,1.90
2023-04-22T12:36:11.815Z,1.70
2023-04-22T12:37:11.827Z,1.60
2023-04-22T12:38:11.813Z,2.20
2023-04-22T12:39:11.801Z,1.70
2023-04-22T12:40:11.923Z,2.50
2023-04-22T12:41:11.833Z,1.90
2023-04-22T12:42:11.847Z,2.30
2023-04-22T12:43:11.857Z,1.90
2023-04-22T12:44:11.857Z,1.50
2023-04-22T12:45:12.791Z,1.40
2023-04-22T12:46:11.985Z,2.50
2023-04-22T12:47:12.851Z,1.80
2023-04-22T12:48:11.901Z,2.00
2023-04-22T12:49:11.904Z,1.80
2023-04-22T12:50:11.900Z,1.90
2023-04-22T12:51:11.909Z,2.10
2023-04-22T12:52:11.907Z,1.80
2023-04-22T12:53:11.899Z,2.70
2023-04-22T12:54:11.941Z,2.90
2023-04-22T12:55:11.954Z,2.30
2023-04-22T12:56:11.974Z,2.40
2023-04-22T12:57:12.171Z,1.80
2023-04-22T12:58:11.984Z,1.50
2023-04-22T12:59:12.176Z,1.80
2023-04-22T13:00:11.943Z,2.20
2023-04-22T13:01:12.006Z,2.70
2023-04-22T13:02:12.024Z,2.30
2023-04-22T13:03:12.190Z,2.10
2023-04-22T13:04:12.048Z,1.50
2023-04-22T13:05:12.003Z,1.40
2023-04-22T13:06:12.061Z,1.90
2023-04-22T13:07:11.979Z,1.80
2023-04-22T13:08:12.099Z,2.30
2023-04-22T13:09:12.003Z,2.40
2023-04-22T13:10:12.032Z,1.80
2023-04-22T13:11:12.063Z,2.50
2023-04-22T13:12:12.020Z,1.40
2023-04-22T13:14:12.105Z,1.80
2023-04-22T13:15:12.059Z,2.10
2023-04-22T13:16:12.090Z,2.50
2023-04-22T13:17:12.049Z,2.20
2023-04-22T13:18:12.256Z,1.50
2023-04-22T13:19:12.076Z,1.30
2023-04-22T13:20:12.080Z,1.20
2023-04-22T13:21:12.104Z,3.20
2023-04-22T13:22:12.071Z,1.20
2023-04-22T13:23:12.078Z,1.40
2023-04-22T13:24:12.091Z,1.60
2023-04-22T13:25:12.138Z,1.50
2023-04-22T13:26:12.121Z,1.30
2023-04-22T13:27:12.098Z,1.80
2023-04-22T13:28:12.142Z,2.60
2023-04-22T13:29:18.148Z,2.00
2023-04-22T13:30:12.152Z,2.20
2023-04-22T13:31:12.179Z,1.50
2023-04-22T13:32:12.135Z,1.70
2023-04-22T13:33:13.081Z,2.00
2023-04-22T13:34:12.141Z,1.20
2023-04-22T13:35:12.167Z,2.20
2023-04-22T13:36:12.153Z,2.00
2023-04-22T13:37:12.145Z,1.70
2023-04-22T13:38:12.193Z,1.70
2023-04-22T13:39:12.211Z,1.90
2023-04-22T13:40:12.211Z,1.70
2023-04-22T13:41:12.225Z,2.10
2023-04-22T13:42:12.198Z,1.90
2023-04-22T13:43:12.314Z,2.60
2023-04-22T13:44:12.209Z,1.60
2023-04-22T13:45:12.264Z,2.30
2023-04-22T13:46:12.272Z,1.40
2023-04-22T13:47:12.229Z,1.20
2023-04-22T13:48:12.255Z,2.10
2023-04-22T13:49:12.226Z,1.40
2023-04-22T13:50:12.269Z,1.70
2023-04-22T13:51:12.279Z,1.20
2023-04-22T13:52:12.251Z,1.20
2023-04-22T13:53:12.389Z,1.80
2023-04-22T13:54:12.287Z,1.60
2023-04-22T13:55:12.282Z,1.40
2023-04-22T13:56:12.374Z,2.70
2023-04-22T13:57:12.376Z,1.70
2023-04-22T13:58:12.392Z,1.70
2023-04-22T13:59:12.302Z,1.50
2023-04-22T14:00:12.296Z,1.60
2023-04-22T14:01:12.377Z,2.30
2023-04-22T14:02:12.448Z,1.50
2023-04-22T14:03:12.526Z,1.40
2023-04-22T14:04:13.870Z,1.70
2023-04-22T14:05:12.319Z,2.00
2023-04-22T14:06:12.332Z,1.60
2023-04-22T14:07:12.356Z,2.00
2023-04-22T14:08:12.441Z,1.50
2023-04-22T14:09:12.469Z,1.30
2023-04-22T14:10:12.466Z,1.40
2023-04-22T14:11:12.468Z,2.00
2023-04-22T14:12:12.473Z,1.50
2023-04-22T14:13:12.383Z,1.60
2023-04-22T14:14:12.378Z,2.30
2023-04-22T14:15:12.506Z,1.60
2023-04-22T14:16:12.481Z,1.20
2023-04-22T14:17:12.485Z,1.20
2023-04-22T14:18:12.474Z,2.50
2023-04-22T14:19:12.394Z,2.00
2023-04-22T14:20:12.527Z,2.10
2023-04-22T14:22:28.012Z,2.00
2023-04-22T14:23:28.217Z,1.20
2023-04-22T14:24:29.257Z,1.70
2023-04-22T14:25:28.475Z,2.30
2023-04-22T14:26:28.548Z,1.80
2023-04-22T14:27:28.661Z,2.20
2023-04-22T14:28:28.789Z,1.90
2023-04-22T14:29:28.980Z,2.20
2023-04-22T14:30:29.122Z,2.00
2023-04-22T14:31:29.435Z,1.60
2023-04-22T14:32:29.418Z,2.00
2023-04-22T14:33:29.523Z,2.20
2023-04-22T14:34:29.777Z,1.50
2023-04-22T14:35:29.784Z,1.60
2023-04-22T14:36:29.903Z,1.70
2023-04-22T14:37:30.044Z,2.00
2023-04-22T14:38:30.182Z,1.80
2023-04-22T14:39:30.324Z,1.90
2023-04-22T14:40:30.481Z,2.20
2023-04-22T14:41:30.616Z,2.80
2023-04-22T14:42:30.725Z,2.40
2023-04-22T14:43:33.161Z,1.80
2023-04-22T14:44:31.045Z,1.50
2023-04-22T14:45:31.137Z,1.10
2023-04-22T14:46:31.362Z,2.20
2023-04-22T14:47:31.475Z,1.70
2023-04-22T14:48:31.547Z,1.90
2023-04-22T14:49:33.269Z,1.40
2023-04-22T14:50:31.789Z,1.50
2023-04-22T14:51:31.940Z,1.80
2023-04-22T14:52:32.063Z,1.80
2023-04-22T14:53:32.248Z,2.70
2023-04-22T14:54:32.410Z,2.30
2023-04-22T14:55:32.613Z,1.80
2023-04-22T14:56:32.702Z,2.20
2023-04-22T14:57:32.856Z,1.30
2023-04-22T14:58:33.008Z,2.50
2023-04-22T14:59:33.121Z,2.00
2023-04-22T15:00:33.308Z,1.80
2023-04-22T15:01:33.395Z,2.00
2023-04-22T15:02:33.584Z,2.00
2023-04-22T15:03:33.916Z,2.00
2023-04-22T15:04:34.000Z,2.70
2023-04-22T15:05:33.956Z,1.80
2023-04-22T15:06:34.137Z,1.70
2023-04-22T15:07:34.241Z,1.90
2023-04-22T15:08:34.369Z,1.90
2023-04-22T15:09:34.590Z,1.60
2023-04-22T15:10:34.640Z,1.70
2023-04-22T15:11:34.776Z,1.40
2023-04-22T15:12:34.958Z,2.10
2023-04-22T15:13:35.019Z,1.90
2023-04-22T15:14:35.226Z,2.20
2023-04-22T15:15:35.338Z,1.60
2023-04-22T15:16:35.563Z,1.50
2023-04-22T15:17:35.625Z,2.10
2023-04-22T15:18:35.832Z,1.60
2023-04-22T15:19:35.908Z,1.60
2023-04-22T15:20:36.068Z,2.60
2023-04-22T15:21:36.289Z,1.40
2023-04-22T15:22:37.197Z,2.60
2023-04-22T15:23:36.515Z,1.80
2023-04-22T15:24:36.658Z,2.10
2023-04-22T15:25:36.710Z,2.90
2023-04-22T15:26:36.959Z,1.80
2023-04-22T15:27:37.033Z,1.80
2023-04-22T15:28:37.161Z,2.70
2023-04-22T15:29:37.313Z,1.70
2023-04-22T15:30:37.428Z,2.00
2023-04-22T15:31:37.653Z,1.20
2023-04-22T15:32:37.709Z,1.50
2023-04-22T15:33:37.844Z,1.70
2023-04-22T15:34:37.988Z,2.00
2023-04-22T15:35:38.137Z,2.10
2023-04-22T15:36:38.280Z,1.70
2023-04-22T15:37:38.415Z,1.30
2023-04-22T15:38:38.533Z,1.60
2023-04-22T15:39:38.904Z,1.80
2023-04-22T15:40:38.831Z,1.30
2023-04-22T15:41:38.990Z,1.90
2023-04-22T15:42:40.085Z,2.40
2023-04-22T15:43:39.284Z,1.90
2023-04-22T15:44:39.812Z,1.80
2023-04-22T15:45:39.560Z,2.80
2023-04-22T15:46:39.709Z,2.20
2023-04-22T15:47:39.874Z,1.70
2023-04-22T15:48:39.924Z,2.00
2023-04-22T15:49:40.323Z,2.30
2023-04-22T15:50:40.216Z,1.20
2023-04-22T15:51:40.327Z,1.50
2023-04-22T15:52:40.470Z,2.00
2023-04-22T15:53:40.629Z,1.60
2023-04-22T15:54:40.788Z,1.80
2023-04-22T15:55:40.864Z,1.80
2023-04-22T15:56:41.007Z,2.10
2023-04-22T15:59:29.636Z,1.40
2023-04-22T16:00:09.320Z,1.80
2023-04-22T16:11:43.452Z,2.40
2023-04-22T16:12:43.539Z,1.50
2023-04-22T16:13:44.628Z,1.80
2023-04-22T16:14:43.779Z,1.80
2023-04-22T16:15:44.050Z,2.70
2023-04-22T16:16:44.111Z,2.00
2023-04-22T16:17:44.232Z,2.20
2023-04-22T16:18:44.548Z,3.10
2023-04-22T16:19:44.446Z,3.00
2023-04-22T16:20:44.605Z,2.50
2023-04-22T16:21:44.697Z,2.30
2023-04-22T16:22:44.905Z,1.90
2023-04-22T16:23:45.971Z,1.90
2023-04-22T16:24:45.147Z,2.40
2023-04-22T16:25:45.330Z,1.80
2023-04-22T16:26:45.437Z,2.00
2023-04-22T16:27:45.551Z,2.60
2023-04-22T16:28:45.755Z,1.60
2023-04-22T16:29:45.829Z,2.30
2023-04-22T16:30:45.959Z,2.10
2023-04-22T16:31:46.090Z,2.70
2023-04-22T16:32:46.263Z,2.60
2023-04-22T16:33:46.392Z,2.80
2023-04-22T16:34:46.510Z,2.50
2023-04-22T16:35:46.711Z,1.90
2023-04-22T16:36:46.824Z,2.30
2023-04-22T16:37:46.942Z,1.80
2023-04-22T16:38:48.049Z,2.20
2023-04-22T16:39:47.211Z,1.50
2023-04-22T16:40:47.404Z,2.20
2023-04-22T16:41:48.463Z,2.60
2023-04-22T16:42:47.648Z,2.50
2023-04-22T16:43:47.760Z,2.60
2023-04-22T16:44:47.899Z,2.40
2023-04-22T16:45:48.149Z,1.60
2023-04-22T16:46:48.165Z,2.00
2023-04-22T16:47:48.347Z,2.40
2023-04-22T16:48:48.485Z,1.80
2023-04-22T16:49:48.628Z,2.00
2023-04-22T16:50:48.789Z,1.70
2023-04-22T16:51:48.907Z,3.30
2023-04-22T16:52:49.011Z,2.50
2023-04-22T16:53:49.189Z,2.00
2023-04-22T16:54:49.315Z,1.60
2023-04-22T16:55:49.433Z,1.60
2023-04-22T16:56:49.564Z,1.70
2023-04-22T16:57:49.679Z,2.50
2023-04-22T16:58:49.837Z,2.70
2023-04-22T16:59:49.991Z,2.60
2023-04-22T17:00:50.141Z,2.90
2023-04-22T17:01:50.317Z,2.90
2023-04-22T17:02:50.962Z,3.30
2023-04-22T17:03:50.845Z,2.30
2023-04-22T17:04:50.754Z,1.80
2023-04-22T17:05:50.887Z,2.80
2023-04-22T17:06:51.102Z,2.30
2023-04-22T17:07:51.196Z,3.10
2023-04-22T17:08:51.315Z,2.90
2023-04-22T17:09:51.456Z,2.50
2023-04-22T17:10:51.566Z,1.60
2023-04-22T17:11:51.772Z,2.80
2023-04-22T17:12:51.810Z,2.50
2023-04-22T17:13:51.995Z,2.10
2023-04-22T17:14:52.106Z,1.90
2023-04-22T17:15:52.258Z,2.60
2023-04-22T17:16:53.283Z,2.90
2023-04-22T17:17:52.526Z,2.40
2023-04-22T17:18:52.643Z,2.70
2023-04-22T17:19:52.769Z,2.50
2023-04-22T17:20:52.893Z,1.70
2023-04-22T17:21:53.033Z,2.60
2023-04-22T17:22:53.191Z,2.50
2023-04-22T17:23:53.366Z,1.50
2023-04-22T17:24:53.487Z,2.80
2023-04-22T17:25:53.629Z,2.80
2023-04-22T17:26:53.867Z,2.50
2023-04-22T17:27:53.906Z,2.40
2023-04-22T17:28:54.224Z,2.60
2023-04-22T17:29:54.289Z,2.70
2023-04-22T17:30:55.267Z,3.60
2023-04-22T17:31:55.458Z,2.60
2023-04-22T17:32:54.483Z,1.90
2023-04-22T17:33:54.674Z,3.00
2023-04-22T17:34:54.832Z,1.60
2023-04-22T17:35:54.968Z,2.20
2023-04-22T17:36:55.101Z,2.40
2023-04-22T17:37:56.175Z,2.30
2023-04-22T17:38:55.359Z,2.00
2023-04-22T17:39:55.482Z,2.40
2023-04-22T17:40:55.590Z,2.00
2023-04-22T17:41:55.736Z,3.30
2023-04-22T17:42:55.959Z,2.60
2023-04-22T17:43:57.848Z,3.50
2023-04-22T17:44:56.110Z,1.60
2023-04-22T17:45:56.230Z,2.20
2023-04-22T17:46:56.451Z,1.70
2023-04-22T17:47:56.584Z,1.90
2023-04-22T17:48:57.656Z,2.30
2023-04-22T17:49:56.845Z,2.00